Time;durP1;ratioP1;P1;durP2;ratioP2;P2;SDS_P1;SDS_P2;PMS_P1;PMS_P2;Temp;Humidity;BMP_temperature;BMP_pressure;BME280_temperature;BME280_humidity;BME280_pressure;Samples;Min_cycle;Max_cycle;Signal;HPM_P1;HPM_P2
2022/07/25 00:01:09;;;;;;;7.20;0.60;;;;;;;18.66;100.00;100184.69;5085423;28;20239;-53
2022/07/25 00:03:35;;;;;;;4.93;0.95;;;;;;;18.64;100.00;100181.44;5086783;28;20104;-50
2022/07/25 00:06:00;;;;;;;2.70;0.25;;;;;;;18.60;100.00;100183.84;5081616;28;20081;-51
2022/07/25 00:08:26;;;;;;;2.03;0.30;;;;;;;18.58;100.00;100188.63;5085273;28;20020;-52
2022/07/25 00:10:51;;;;;;;6.75;0.73;;;;;;;18.57;100.00;100188.91;5084108;28;20075;-54
2022/07/25 00:13:16;;;;;;;3.13;0.60;;;;;;;18.52;100.00;100179.72;5086170;28;20149;-53
2022/07/25 00:15:42;;;;;;;3.90;0.60;;;;;;;18.49;100.00;100190.16;5083008;28;20028;-54
2022/07/25 00:18:07;;;;;;;7.78;1.10;;;;;;;18.47;100.00;100171.59;5084345;28;20043;-51
2022/07/25 00:20:32;;;;;;;2.28;0.57;;;;;;;18.43;100.00;100156.25;5082295;28;20293;-54
2022/07/25 00:22:58;;;;;;;2.55;0.30;;;;;;;18.42;100.00;100155.44;5081973;28;20039;-49
2022/07/25 00:25:23;;;;;;;2.90;0.90;;;;;;;18.40;100.00;100154.88;5086692;28;20105;-48
2022/07/25 00:27:49;;;;;;;1.85;0.98;;;;;;;18.39;100.00;100155.13;5086191;28;20392;-53
2022/07/25 00:30:14;;;;;;;4.78;0.95;;;;;;;18.37;100.00;100151.88;5084228;28;20115;-52
2022/07/25 00:32:39;;;;;;;4.88;1.10;;;;;;;18.33;100.00;100154.28;5085249;28;20028;-49
2022/07/25 00:35:05;;;;;;;2.58;0.68;;;;;;;18.33;100.00;100161.50;5086196;28;20044;-48
2022/07/25 00:37:31;;;;;;;3.00;0.95;;;;;;;18.31;100.00;100154.50;5084937;28;20419;-48
2022/07/25 00:39:56;;;;;;;4.60;0.88;;;;;;;18.31;100.00;100164.44;5085655;28;20032;-50
2022/07/25 00:42:22;;;;;;;5.05;1.90;;;;;;;18.28;100.00;100165.75;5085541;28;20036;-55
2022/07/25 00:44:49;;;;;;;3.28;0.28;;;;;;;18.23;100.00;100165.69;5084979;28;20036;-57
2022/07/25 00:47:14;;;;;;;0.82;0.10;;;;;;;18.24;100.00;100163.81;5083755;28;20032;-51
2022/07/25 00:49:39;;;;;;;2.13;0.73;;;;;;;18.20;100.00;100154.63;5085695;28;20024;-53
2022/07/25 00:52:05;;;;;;;3.92;1.23;;;;;;;18.14;100.00;100147.59;5084701;28;20479;-52
2022/07/25 00:54:31;;;;;;;1.15;0.22;;;;;;;18.08;100.00;100150.19;5083810;28;20020;-44
2022/07/25 00:56:56;;;;;;;1.33;0.43;;;;;;;18.03;100.00;100146.66;5081868;28;20727;-54
2022/07/25 00:59:22;;;;;;;0.88;0.30;;;;;;;17.98;100.00;100141.22;5086770;28;20031;-57
2022/07/25 01:01:47;;;;;;;1.48;0.22;;;;;;;17.93;100.00;100139.25;5083993;28;20323;-55
2022/07/25 01:04:15;;;;;;;1.42;0.47;;;;;;;17.92;100.00;100136.84;5080686;28;20050;-54
2022/07/25 01:06:40;;;;;;;2.42;0.68;;;;;;;17.89;100.00;100138.16;5085763;28;20028;-50
2022/07/25 01:09:06;;;;;;;1.48;0.60;;;;;;;17.89;100.00;100138.16;5083120;28;20057;-48
2022/07/25 01:11:31;;;;;;;1.55;0.38;;;;;;;17.83;100.00;100141.81;5085012;28;20461;-54
2022/07/25 01:13:57;;;;;;;2.25;0.60;;;;;;;17.72;100.00;100143.50;5079874;28;20139;-55
2022/07/25 01:16:22;;;;;;;1.38;0.45;;;;;;;17.63;100.00;100135.09;5083179;28;20424;-49
2022/07/25 01:18:47;;;;;;;3.00;0.68;;;;;;;17.60;100.00;100140.09;5080662;28;20051;-53
2022/07/25 01:21:13;;;;;;;1.90;0.13;;;;;;;17.54;100.00;100136.53;5085478;28;20027;-54
2022/07/25 01:23:39;;;;;;;3.85;0.20;;;;;;;17.50;100.00;100130.03;5084997;28;20035;-55
2022/07/25 01:26:05;;;;;;;8.10;0.82;;;;;;;17.43;100.00;100127.53;5086205;28;20058;-55
2022/07/25 01:28:30;;;;;;;9.25;0.50;;;;;;;17.40;100.00;100129.91;5080958;28;20032;-55
2022/07/25 01:30:56;;;;;;;2.00;0.28;;;;;;;17.35;100.00;100135.19;5083695;28;20024;-52
2022/07/25 01:33:21;;;;;;;4.38;0.60;;;;;;;17.36;100.00;100126.88;5086067;28;20081;-53
2022/07/25 01:35:47;;;;;;;1.60;0.40;;;;;;;17.41;100.00;100134.19;5079020;28;20059;-54
2022/07/25 01:38:14;;;;;;;5.38;1.85;;;;;;;17.44;100.00;100120.31;5084219;28;20027;-51
2022/07/25 01:40:40;;;;;;;1.75;0.47;;;;;;;17.44;100.00;100125.66;5085882;28;20085;-56
2022/07/25 01:43:06;;;;;;;3.15;0.80;;;;;;;17.46;100.00;100133.47;5082743;28;20132;-46
2022/07/25 01:45:32;;;;;;;2.25;0.30;;;;;;;17.48;100.00;100132.16;5075963;28;20020;-50
2022/07/25 01:47:58;;;;;;;2.00;0.70;;;;;;;17.50;100.00;100127.34;5084806;28;20077;-54
2022/07/25 01:50:24;;;;;;;1.75;0.82;;;;;;;17.48;100.00;100124.13;5080690;28;20029;-50
2022/07/25 01:52:49;;;;;;;2.28;0.50;;;;;;;17.43;100.00;100122.19;5085490;28;20112;-46
2022/07/25 01:55:15;;;;;;;2.85;0.50;;;;;;;17.38;100.00;100132.81;5082903;28;20099;-56
2022/07/25 01:57:40;;;;;;;1.85;0.30;;;;;;;17.32;100.00;100122.25;5083106;28;20425;-57
2022/07/25 02:00:08;;;;;;;3.22;0.20;;;;;;;17.23;100.00;100127.22;5083356;28;20514;-45
2022/07/25 02:02:34;;;;;;;3.17;0.30;;;;;;;17.17;100.00;100126.31;5077594;28;20032;-53
2022/07/25 02:04:59;;;;;;;12.82;0.63;;;;;;;17.14;100.00;100125.97;5080937;28;20318;-56
2022/07/25 02:07:24;;;;;;;2.00;0.73;;;;;;;17.10;100.00;100130.22;5083670;28;20032;-50
2022/07/25 02:09:50;;;;;;;1.90;0.90;;;;;;;17.08;100.00;100125.09;5081274;28;20068;-55
2022/07/25 02:12:15;;;;;;;2.00;0.70;;;;;;;16.97;100.00;100120.63;5082498;28;20408;-55
2022/07/25 02:14:40;;;;;;;1.40;0.75;;;;;;;16.91;100.00;100116.22;5084489;28;20029;-55
2022/07/25 02:17:06;;;;;;;3.22;0.45;;;;;;;16.87;100.00;100123.13;5085845;28;20034;-51
2022/07/25 02:19:31;;;;;;;3.40;1.20;;;;;;;16.81;100.00;100116.88;5086424;28;20357;-54
2022/07/25 02:21:57;;;;;;;4.80;0.55;;;;;;;16.77;100.00;100116.53;5089482;28;20120;-49
2022/07/25 02:24:22;;;;;;;3.85;0.90;;;;;;;16.73;100.00;100120.72;5085134;28;20077;-48
2022/07/25 02:26:48;;;;;;;7.38;1.58;;;;;;;16.67;100.00;100121.66;5082804;28;20046;-49
2022/07/25 02:29:13;;;;;;;2.10;0.70;;;;;;;16.65;100.00;100126.47;5074903;28;20036;-47
2022/07/25 02:31:38;;;;;;;4.63;1.15;;;;;;;16.63;100.00;100120.53;5089587;28;20119;-50
2022/07/25 02:34:04;;;;;;;8.10;1.23;;;;;;;16.54;100.00;100114.75;5081034;28;20024;-55
2022/07/25 02:36:29;;;;;;;3.05;0.90;;;;;;;16.50;100.00;100126.19;5085531;28;20490;-50
2022/07/25 02:38:55;;;;;;;1.50;1.08;;;;;;;16.47;100.00;100121.28;5082554;28;20427;-55
2022/07/25 02:41:20;;;;;;;4.75;1.15;;;;;;;16.39;100.00;100124.34;5082535;28;20047;-51
2022/07/25 02:43:45;;;;;;;2.47;1.05;;;;;;;16.35;100.00;100124.81;5080142;28;20052;-53
2022/07/25 02:46:11;;;;;;;5.72;1.90;;;;;;;16.32;100.00;100122.63;5074965;28;20086;-50
2022/07/25 02:48:36;;;;;;;3.35;1.00;;;;;;;16.24;100.00;100120.31;5082559;28;20119;-51
2022/07/25 02:51:02;;;;;;;6.97;1.83;;;;;;;16.22;100.00;100122.41;5086318;28;20027;-51
2022/07/25 02:53:27;;;;;;;2.28;1.08;;;;;;;16.29;100.00;100127.66;5075784;28;20028;-44
2022/07/25 02:55:52;;;;;;;4.88;0.47;;;;;;;16.33;100.00;100128.78;5080335;28;20165;-48
2022/07/25 02:58:18;;;;;;;7.93;0.80;;;;;;;16.39;100.00;100129.69;5075697;28;20028;-51
2022/07/25 03:00:43;;;;;;;8.23;1.50;;;;;;;16.47;100.00;100122.13;5069750;28;20300;-46
2022/07/25 03:03:08;;;;;;;8.18;1.80;;;;;;;16.46;100.00;100115.13;5087833;28;20032;-53
2022/07/25 03:05:34;;;;;;;8.10;2.70;;;;;;;16.38;100.00;100112.03;5084631;28;20089;-51
2022/07/25 03:07:59;;;;;;;6.80;1.65;;;;;;;16.34;100.00;100107.16;5081978;28;20483;-48
2022/07/25 03:10:25;;;;;;;4.95;0.80;;;;;;;16.28;100.00;100097.38;5077305;28;20029;-51
2022/07/25 03:12:50;;;;;;;5.32;1.10;;;;;;;16.22;100.00;100097.53;5076205;28;20426;-48
2022/07/25 03:15:15;;;;;;;7.13;2.88;;;;;;;16.16;100.00;100098.47;5082286;28;20069;-51
2022/07/25 03:17:41;;;;;;;4.13;1.20;;;;;;;16.14;100.00;100101.41;5077709;28;20039;-48
2022/07/25 03:20:08;;;;;;;2.50;1.33;;;;;;;16.15;100.00;100103.00;5088018;28;20028;-45
2022/07/25 03:22:34;;;;;;;6.63;0.90;;;;;;;16.27;100.00;100098.44;5082541;28;20033;-49
2022/07/25 03:24:59;;;;;;;6.75;1.42;;;;;;;16.36;100.00;100094.31;5080598;28;20120;-52
2022/07/25 03:27:25;;;;;;;1.52;1.05;;;;;;;16.41;100.00;100090.13;5083315;28;20033;-50
2022/07/25 03:29:50;;;;;;;4.60;1.27;;;;;;;16.45;100.00;100092.09;5081954;28;20495;-53
2022/07/25 03:32:16;;;;;;;5.90;1.02;;;;;;;16.49;100.00;100095.09;5080173;28;20040;-52
2022/07/25 03:34:42;;;;;;;1.40;0.75;;;;;;;16.49;100.00;100092.44;5086800;28;20333;-54
2022/07/25 03:37:07;;;;;;;8.48;2.75;;;;;;;16.51;100.00;100091.13;5087820;28;20035;-54
2022/07/25 03:39:33;;;;;;;5.10;2.00;;;;;;;16.49;100.00;100089.75;5085415;28;20032;-49
2022/07/25 03:41:58;;;;;;;5.88;1.10;;;;;;;16.45;100.00;100093.97;5084729;28;20032;-52
2022/07/25 03:44:24;;;;;;;10.65;1.98;;;;;;;16.41;100.00;100096.28;5083193;28;20062;-56
2022/07/25 03:46:50;;;;;;;8.80;2.05;;;;;;;16.38;100.00;100091.44;5085610;28;20483;-50
2022/07/25 03:49:17;;;;;;;5.85;1.25;;;;;;;16.32;100.00;100098.56;5075479;28;20486;-50
2022/07/25 03:51:42;;;;;;;9.43;1.23;;;;;;;16.26;100.00;100101.34;5078573;28;20055;-52
2022/07/25 03:54:12;;;;;;;11.20;1.27;;;;;;;16.17;100.00;100102.78;5081439;28;20535;-48
2022/07/25 03:56:45;;;;;;;7.22;2.08;;;;;;;16.07;100.00;100098.84;5072433;28;20078;-57
2022/07/25 03:59:15;;;;;;;7.00;0.98;;;;;;;16.03;100.00;100092.38;5085347;28;20452;-47
2022/07/25 04:01:42;;;;;;;9.20;2.60;;;;;;;16.03;100.00;100084.34;5082946;28;20122;-47
2022/07/25 04:04:08;;;;;;;9.85;2.58;;;;;;;16.00;100.00;100095.47;5087652;28;20047;-54
2022/07/25 04:06:34;;;;;;;4.70;2.53;;;;;;;15.96;100.00;100096.22;5078816;28;20416;-54
2022/07/25 04:09:00;;;;;;;10.75;2.40;;;;;;;15.92;100.00;100077.94;5083773;28;20048;-52
2022/07/25 04:11:28;;;;;;;7.95;2.05;;;;;;;15.98;100.00;100086.91;5070320;28;20029;-50
2022/07/25 04:13:53;;;;;;;5.22;1.58;;;;;;;16.10;100.00;100089.53;5082164;28;20036;-48
2022/07/25 04:16:19;;;;;;;3.65;1.35;;;;;;;16.14;100.00;100088.84;5064627;28;20116;-53
2022/07/25 04:18:45;;;;;;;9.90;2.10;;;;;;;16.23;100.00;100083.09;5076275;28;20440;-53
2022/07/25 04:21:10;;;;;;;7.90;1.13;;;;;;;16.28;100.00;100073.31;5083239;28;20083;-51
2022/07/25 04:23:36;;;;;;;4.28;1.88;;;;;;;16.34;100.00;100075.06;5066490;28;20404;-51
2022/07/25 04:26:02;;;;;;;5.65;1.58;;;;;;;16.41;100.00;100068.72;5087200;28;20490;-48
2022/07/25 04:28:27;;;;;;;6.00;1.00;;;;;;;16.43;100.00;100069.31;5087017;28;20457;-47
2022/07/25 04:30:53;;;;;;;6.25;2.40;;;;;;;16.44;100.00;100062.91;5079750;28;20481;-45
2022/07/25 04:33:18;;;;;;;8.60;1.83;;;;;;;16.46;100.00;100056.25;5082158;28;20119;-48
2022/07/25 04:35:44;;;;;;;5.93;1.13;;;;;;;16.47;100.00;100060.56;5079214;28;20111;-53
2022/07/25 04:38:10;;;;;;;7.75;1.67;;;;;;;16.48;100.00;100069.41;5086655;28;20092;-47
2022/07/25 04:40:35;;;;;;;3.60;0.68;;;;;;;16.49;100.00;100060.31;5075668;28;20024;-47
2022/07/25 04:43:01;;;;;;;3.03;0.95;;;;;;;16.51;100.00;100068.91;5083793;28;20456;-47
2022/07/25 04:45:26;;;;;;;4.32;1.83;;;;;;;16.54;100.00;100079.94;5086728;28;20122;-47
2022/07/25 04:47:52;;;;;;;7.22;1.50;;;;;;;16.57;100.00;100076.81;5082254;28;20088;-45
2022/07/25 04:50:17;;;;;;;7.07;1.83;;;;;;;16.57;100.00;100071.47;5086331;28;20479;-46
2022/07/25 04:52:43;;;;;;;17.48;2.88;;;;;;;16.58;100.00;100062.38;5084141;28;20098;-48
2022/07/25 04:55:09;;;;;;;11.07;1.20;;;;;;;16.60;100.00;100070.16;5083110;28;20380;-50
2022/07/25 04:57:34;;;;;;;8.57;1.70;;;;;;;16.62;100.00;100064.56;5081644;28;20538;-51
2022/07/25 05:00:00;;;;;;;5.88;1.80;;;;;;;16.64;100.00;100049.06;5079048;28;20422;-47
2022/07/25 05:02:25;;;;;;;8.13;1.25;;;;;;;16.66;100.00;100050.47;5073072;28;20123;-48
2022/07/25 05:04:51;;;;;;;10.07;1.70;;;;;;;16.67;100.00;100046.72;5080115;28;20125;-48
2022/07/25 05:07:16;;;;;;;5.97;1.35;;;;;;;16.69;100.00;100049.97;5083078;28;20036;-47
2022/07/25 05:09:42;;;;;;;10.30;2.92;;;;;;;16.70;100.00;100056.97;5083078;28;20448;-53
2022/07/25 05:12:08;;;;;;;5.75;1.42;;;;;;;16.73;100.00;100058.34;5081320;28;20398;-49
2022/07/25 05:14:33;;;;;;;4.30;0.98;;;;;;;16.76;100.00;100055.19;5081186;28;20563;-53
2022/07/25 05:16:59;;;;;;;5.15;1.02;;;;;;;16.79;100.00;100060.06;5079396;28;20148;-52
2022/07/25 05:19:24;;;;;;;9.05;1.65;;;;;;;16.81;100.00;100057.16;5086262;28;20079;-47
2022/07/25 05:21:50;;;;;;;9.93;1.10;;;;;;;16.82;100.00;100058.78;5075479;28;20412;-51
2022/07/25 05:24:15;;;;;;;8.27;1.20;;;;;;;16.84;100.00;100062.03;5082567;28;20050;-50
2022/07/25 05:26:41;;;;;;;3.35;1.35;;;;;;;16.86;100.00;100054.56;5080471;28;20123;-48
2022/07/25 05:29:06;;;;;;;5.78;1.63;;;;;;;16.86;100.00;100058.06;5079776;28;20032;-52
2022/07/25 05:31:32;;;;;;;6.30;2.50;;;;;;;16.86;100.00;100065.28;5080533;28;20024;-50
2022/07/25 05:33:57;;;;;;;5.03;1.35;;;;;;;16.84;100.00;100062.03;5078062;28;20031;-45
2022/07/25 05:36:23;;;;;;;9.48;2.15;;;;;;;16.87;100.00;100059.69;5080344;28;20032;-45
2022/07/25 05:38:48;;;;;;;6.38;1.58;;;;;;;16.89;100.00;100051.41;5086012;28;20040;-47
2022/07/25 05:41:14;;;;;;;4.20;0.73;;;;;;;16.93;100.00;100055.22;5072781;28;20032;-49
2022/07/25 05:43:42;;;;;;;2.78;0.65;;;;;;;16.99;100.00;100062.28;5085471;28;20058;-53
2022/07/25 05:46:07;;;;;;;2.28;1.23;;;;;;;16.99;100.00;100055.06;5084494;28;20243;-50
2022/07/25 05:48:32;;;;;;;3.33;1.25;;;;;;;17.05;100.00;100061.31;5085437;28;20072;-49
2022/07/25 05:50:58;;;;;;;3.78;0.80;;;;;;;17.04;100.00;100067.72;5084817;28;20024;-45
2022/07/25 05:53:24;;;;;;;1.90;0.55;;;;;;;17.02;100.00;100072.50;5086827;28;20486;-44
2022/07/25 05:55:50;;;;;;;2.28;0.50;;;;;;;17.01;100.00;100065.50;5086387;28;20652;-51
2022/07/25 05:58:15;;;;;;;3.88;0.95;;;;;;;17.01;100.00;100065.50;5080999;28;20114;-50
2022/07/25 06:00:41;;;;;;;2.95;0.30;;;;;;;16.98;100.00;100058.78;5081473;28;20064;-50
2022/07/25 06:03:06;;;;;;;4.65;0.40;;;;;;;16.97;100.00;100065.19;5078110;28;20036;-49
2022/07/25 06:05:31;;;;;;;2.00;0.85;;;;;;;16.97;100.00;100061.72;5082062;28;20035;-46
2022/07/25 06:07:57;;;;;;;3.40;0.55;;;;;;;16.95;100.00;100058.47;5085462;28;20119;-50
2022/07/25 06:10:23;;;;;;;0.30;0.10;;;;;;;16.96;100.00;100062.75;5078458;28;20035;-48
2022/07/25 06:12:48;;;;;;;3.95;0.68;;;;;;;16.95;100.00;100063.81;5082748;28;20076;-43
2022/07/25 06:15:13;;;;;;;6.15;0.82;;;;;;;16.91;100.00;100073.38;5083612;28;20138;-50
2022/07/25 06:17:39;;;;;;;3.35;0.50;;;;;;;16.89;100.00;100073.63;5082182;28;20020;-51
2022/07/25 06:20:05;;;;;;;3.17;0.88;;;;;;;16.88;100.00;100069.34;5085567;28;20473;-49
2022/07/25 06:22:30;;;;;;;0.55;0.20;;;;;;;16.89;100.00;100083.53;5077051;28;20036;-50
2022/07/25 06:24:56;;;;;;;3.10;0.73;;;;;;;16.92;100.00;100066.97;5084076;28;20032;-50
2022/07/25 06:27:21;;;;;;;0.60;0.20;;;;;;;16.91;100.00;100076.06;5089260;28;20080;-50
2022/07/25 06:29:47;;;;;;;4.32;0.52;;;;;;;16.90;100.00;100075.25;5079611;28;20093;-54
2022/07/25 06:32:12;;;;;;;1.65;0.35;;;;;;;16.97;100.00;100083.13;5086046;28;20032;-52
2022/07/25 06:34:38;;;;;;;1.77;0.28;;;;;;;17.08;100.00;100079.56;5082788;28;20076;-53
2022/07/25 06:37:03;;;;;;;5.63;0.82;;;;;;;17.18;100.00;100071.69;5080934;28;20020;-51
2022/07/25 06:39:28;;;;;;;5.35;0.68;;;;;;;17.28;100.00;100071.03;5086217;28;20797;-49
2022/07/25 06:41:54;;;;;;;7.25;0.50;;;;;;;17.28;100.00;100072.91;5088697;28;20032;-51
2022/07/25 06:44:20;;;;;;;2.15;0.65;;;;;;;17.29;100.00;100074.53;5085481;28;20106;-52
2022/07/25 06:46:45;;;;;;;0.45;0.30;;;;;;;17.32;100.00;100079.38;5088137;28;20491;-50
2022/07/25 06:49:10;;;;;;;2.15;0.32;;;;;;;17.35;100.00;100078.91;5079141;28;20032;-52
2022/07/25 06:51:36;;;;;;;1.05;0.20;;;;;;;17.33;100.00;100081.03;5089092;28;20123;-47
2022/07/25 06:54:01;;;;;;;3.40;0.10;;;;;;;17.44;100.00;100090.81;5080222;28;20107;-50
2022/07/25 06:56:30;;;;;;;4.00;0.20;;;;;;;17.50;100.00;100086.34;5084013;28;20080;-52
2022/07/25 06:58:57;;;;;;;1.23;0.43;;;;;;;17.40;100.00;100081.66;5086105;28;20463;-54
2022/07/25 07:01:22;;;;;;;1.13;0.13;;;;;;;17.42;100.00;100084.88;5083935;28;20051;-45
2022/07/25 07:03:48;;;;;;;1.63;0.10;;;;;;;17.47;100.00;100079.59;5079866;28;20502;-50
2022/07/25 07:06:13;;;;;;;2.33;0.30;;;;;;;17.78;100.00;100080.03;5086893;28;20105;-49
2022/07/25 07:08:39;;;;;;;0.77;0.10;;;;;;;17.90;100.00;100082.63;5082422;28;20131;-53
2022/07/25 07:11:06;;;;;;;2.40;0.25;;;;;;;17.84;100.00;100093.31;5086241;28;20162;-50
2022/07/25 07:13:31;;;;;;;0.35;0.00;;;;;;;17.81;100.00;100090.28;5085842;28;20027;-56
2022/07/25 07:15:57;;;;;;;0.15;0.00;;;;;;;17.73;100.00;100082.66;5084240;28;20118;-49
2022/07/25 07:18:22;;;;;;;12.95;1.23;;;;;;;17.60;100.00;100087.28;5076922;28;20108;-49
2022/07/25 07:20:48;;;;;;;2.13;0.28;;;;;;;17.61;100.00;100094.28;5081369;28;20461;-54
2022/07/25 07:23:14;;;;;;;1.70;0.20;;;;;;;17.56;100.00;100088.88;5087091;28;20036;-58
2022/07/25 07:25:39;;;;;;;2.95;0.57;;;;;;;17.61;100.00;100099.66;5083651;28;20392;-49
2022/07/25 07:28:05;;;;;;;0.57;0.10;;;;;;;17.63;100.00;100094.88;5088746;28;20036;-48
2022/07/25 07:30:31;;;;;;;3.45;0.63;;;;;;;17.64;100.00;100080.41;5082525;28;20028;-45
2022/07/25 07:32:58;;;;;;;1.08;0.32;;;;;;;17.64;100.00;100083.06;5085484;28;20028;-55
2022/07/25 07:35:24;;;;;;;0.30;0.20;;;;;;;17.72;100.00;100086.41;5085965;28;20028;-53
2022/07/25 07:37:51;;;;;;;2.67;0.10;;;;;;;17.90;100.00;100094.16;5085028;28;20084;-47
2022/07/25 07:40:16;;;;;;;2.00;0.10;;;;;;;18.09;100.00;100094.66;5067186;28;20420;-48
2022/07/25 07:42:45;;;;;;;1.05;0.10;;;;;;;18.20;100.00;100095.59;5082729;28;20039;-55
2022/07/25 07:45:16;;;;;;;0.30;0.20;;;;;;;18.21;100.00;100087.31;5087625;28;20052;-52
2022/07/25 07:47:41;;;;;;;1.27;0.00;;;;;;;18.30;100.00;100101.91;5074723;28;20446;-58
2022/07/25 07:50:08;;;;;;;0.73;0.00;;;;;;;18.34;100.00;100104.09;5088361;28;20421;-50
2022/07/25 07:52:34;;;;;;;1.30;0.10;;;;;;;18.34;100.00;100104.09;5083247;28;20048;-48
2022/07/25 07:57:44;;;;;;;0.98;0.10;;;;;;;18.01;100.00;100100.47;5076909;28;20085;-51
2022/07/25 08:00:10;;;;;;;0.73;0.00;;;;;;;18.03;100.00;100096.47;5066052;28;20027;-54
2022/07/25 08:02:47;;;;;;;0.35;0.32;;;;;;;17.94;100.00;100106.03;5078034;28;20036;-49
2022/07/25 08:05:20;;;;;;;0.10;0.00;;;;;;;17.84;100.00;100101.34;5077474;28;20024;-47
2022/07/25 08:07:45;;;;;;;1.77;0.00;;;;;;;17.84;100.00;100101.34;5062598;28;20047;-51
2022/07/25 08:10:11;;;;;;;1.60;0.52;;;;;;;17.82;100.00;100090.06;5079812;28;20552;-54
2022/07/25 08:12:41;;;;;;;0.70;0.10;;;;;;;17.99;100.00;100097.22;5081861;28;20057;-53
2022/07/25 08:15:08;;;;;;;1.67;0.20;;;;;;;18.09;100.00;100100.03;5078042;28;20043;-51
2022/07/25 08:17:33;;;;;;;0.93;0.30;;;;;;;18.17;100.00;100101.47;5079620;28;20123;-43
2022/07/25 08:19:59;;;;;;;2.20;0.10;;;;;;;18.28;100.00;100101.34;5078025;28;20028;-54
2022/07/25 08:22:34;;;;;;;0.57;0.00;;;;;;;18.50;100.00;100101.31;5082489;28;20168;-47
2022/07/25 08:24:59;;;;;;;0.00;0.00;;;;;;;18.67;100.00;100100.41;5079663;28;20063;-44
2022/07/25 08:27:25;;;;;;;0.75;0.10;;;;;;;18.56;100.00;100098.66;5078766;28;20020;-47
2022/07/25 08:29:50;;;;;;;2.92;0.00;;;;;;;18.48;100.00;100106.13;5082746;28;20039;-50
2022/07/25 08:32:16;;;;;;;2.28;0.00;;;;;;;18.44;100.00;100106.88;5082690;28;20032;-54
2022/07/25 08:34:41;;;;;;;2.17;0.43;;;;;;;18.40;100.00;100109.25;5081966;28;20020;-52
2022/07/25 08:37:06;;;;;;;2.28;0.28;;;;;;;18.37;100.00;100111.63;5079974;28;20146;-52
2022/07/25 08:39:32;;;;;;;2.80;0.10;;;;;;;18.26;100.00;100108.03;5081315;28;20483;-49
2022/07/25 08:41:58;;;;;;;1.33;0.43;;;;;;;18.16;100.00;100110.59;5081089;28;20028;-51
2022/07/25 08:44:27;;;;;;;1.17;0.47;;;;;;;17.99;100.00;100122.19;5077229;28;20087;-47
2022/07/25 08:46:53;;;;;;;2.30;0.20;;;;;;;17.94;100.00;100118.63;5081353;28;20035;-52
2022/07/25 08:49:19;;;;;;;0.45;0.00;;;;;;;17.94;100.00;100118.63;5078721;28;20403;-45
2022/07/25 08:51:45;;;;;;;0.80;0.25;;;;;;;17.94;100.00;100119.44;5080714;28;20032;-52
2022/07/25 08:54:10;;;;;;;0.40;0.00;;;;;;;17.96;100.00;100125.34;5080900;28;20056;-44
2022/07/25 08:56:36;;;;;;;0.15;0.13;;;;;;;17.99;100.00;100126.72;5056395;28;20039;-50
2022/07/25 08:59:01;;;;;;;0.73;0.05;;;;;;;17.95;100.00;100126.44;5079700;28;20044;-49
2022/07/25 09:01:28;;;;;;;1.60;0.10;;;;;;;17.92;100.00;100129.59;5077262;28;20091;-51
2022/07/25 09:03:53;;;;;;;1.33;0.00;;;;;;;17.93;100.00;100136.59;5076873;28;20032;-49
2022/07/25 09:06:21;;;;;;;6.15;0.30;;;;;;;17.92;100.00;100134.16;5077613;28;20028;-56
2022/07/25 09:08:57;;;;;;;1.80;0.25;;;;;;;17.92;100.00;100137.66;5081002;28;20039;-49
2022/07/25 09:11:40;;;;;;;0.45;0.22;;;;;;;17.57;100.00;100159.38;5081813;28;20035;-53
2022/07/25 09:14:09;;;;;;;6.25;0.90;;;;;;;17.15;100.00;100162.44;5081316;28;20113;-49
2022/07/25 09:16:39;;;;;;;7.22;0.65;;;;;;;17.01;100.00;100164.59;5080262;28;20108;-51
2022/07/25 09:19:11;;;;;;;0.77;0.28;;;;;;;17.00;100.00;100176.38;5082987;28;20503;-51
2022/07/25 09:21:38;;;;;;;1.33;0.10;;;;;;;16.98;100.00;100186.50;5064693;28;20038;-51
2022/07/25 09:24:16;;;;;;;4.00;0.80;;;;;;;16.88;100.00;100189.00;5079200;28;20161;-46
2022/07/25 09:26:47;;;;;;;1.10;0.20;;;;;;;16.62;100.00;100193.84;5079350;28;20020;-53
2022/07/25 09:29:17;;;;;;;6.63;0.95;;;;;;;16.48;100.00;100205.88;5085349;28;20039;-48
2022/07/25 09:31:42;;;;;;;3.85;0.00;;;;;;;16.38;100.00;100206.47;5086466;28;20035;-52
2022/07/25 09:34:09;;;;;;;1.48;0.00;;;;;;;16.51;100.00;100203.53;5086022;28;20024;-51
2022/07/25 09:36:38;;;;;;;3.30;0.55;;;;;;;16.62;100.00;100215.25;5081664;28;20476;-51
2022/07/25 09:39:05;;;;;;;3.65;0.00;;;;;;;16.83;100.00;100221.88;5076541;28;20048;-52
2022/07/25 09:41:35;;;;;;;5.82;0.30;;;;;;;17.04;100.00;100216.88;5077647;28;20151;-48
2022/07/25 09:44:01;;;;;;;2.63;0.90;;;;;;;17.22;100.00;100222.06;5083196;28;20039;-54
2022/07/25 09:46:30;;;;;;;1.40;0.30;;;;;;;17.21;100.00;100212.38;5080474;28;20385;-53
2022/07/25 09:48:57;;;;;;;2.60;0.40;;;;;;;17.39;100.00;100217.50;5080979;28;20024;-50
2022/07/25 09:51:24;;;;;;;1.13;0.00;;;;;;;17.47;100.00;100232.38;5086024;28;20109;-50
2022/07/25 09:53:49;;;;;;;0.30;0.00;;;;;;;17.48;100.00;100228.66;5084053;28;20036;-55
2022/07/25 09:56:15;;;;;;;2.63;0.55;;;;;;;17.34;100.00;100233.50;5085025;28;20028;-53
2022/07/25 09:58:40;;;;;;;0.25;0.00;;;;;;;17.22;100.00;100236.25;5073276;28;20160;-47
2022/07/25 10:01:06;;;;;;;4.03;0.45;;;;;;;17.53;100.00;100241.31;5076644;28;20032;-52
2022/07/25 10:03:51;;;;;;;1.85;0.00;;;;;;;17.99;100.00;100236.69;5081033;28;20036;-53
2022/07/25 10:06:29;;;;;;;0.10;0.10;;;;;;;18.18;100.00;100221.16;5079143;28;20140;-51
2022/07/25 10:08:56;;;;;;;0.90;0.30;;;;;;;18.15;100.00;100227.00;5080499;28;20496;-55
2022/07/25 10:11:24;;;;;;;0.10;0.00;;;;;;;18.26;100.00;100240.31;5075596;28;20125;-52
2022/07/25 10:13:50;;;;;;;1.77;0.40;;;;;;;18.52;100.00;100219.19;5077834;28;20028;-47
2022/07/25 10:16:19;;;;;;;1.75;0.00;;;;;;;18.70;100.00;100228.78;5079447;28;20028;-45
2022/07/25 10:18:50;;;;;;;1.27;0.00;;;;;;;18.68;100.00;100220.19;5078641;28;20032;-55
2022/07/25 10:21:15;;;;;;;1.63;0.08;;;;;;;18.74;100.00;100219.16;5079439;28;20070;-58
2022/07/25 10:23:41;;;;;;;2.00;0.00;;;;;;;19.06;100.00;100226.53;5073626;28;20060;-52
2022/07/25 10:26:12;;;;;;;1.30;0.38;;;;;;;19.34;100.00;100214.72;5076999;28;20075;-54
2022/07/25 10:28:45;;;;;;;2.00;0.00;;;;;;;19.52;100.00;100224.28;5083388;28;20051;-51
2022/07/25 10:31:41;;;;;;;0.17;0.00;;;;;;;19.54;100.00;100231.03;5078101;28;20062;-50
2022/07/25 10:34:09;;;;;;;1.85;0.20;;;;;;;19.56;100.00;100228.06;5060647;28;20048;-56
2022/07/25 10:36:41;;;;;;;1.02;0.08;;;;;;;19.64;100.00;100232.97;5085585;28;21091;-51
2022/07/25 10:39:08;;;;;;;1.85;0.00;;;;;;;19.61;100.00;100228.91;5082457;28;20159;-59
2022/07/25 10:41:38;;;;;;;0.13;0.00;;;;;;;19.55;100.00;100229.13;5083700;28;20050;-58
2022/07/25 10:44:03;;;;;;;0.00;0.00;;;;;;;19.26;100.00;100242.88;5084287;28;20464;-54
2022/07/25 10:46:33;;;;;;;0.20;0.00;;;;;;;19.39;100.00;100242.44;5085427;28;20046;-48
2022/07/25 10:49:01;;;;;;;0.10;0.00;;;;;;;19.55;100.00;100229.13;5087683;28;20059;-56
2022/07/25 10:51:30;;;;;;;1.35;0.10;;;;;;;19.56;100.00;100228.88;5070852;28;20035;-47
2022/07/25 10:53:56;;;;;;;0.05;0.00;;;;;;;19.58;100.00;100224.03;5074620;28;20028;-50
2022/07/25 10:56:24;;;;;;;0.15;0.00;;;;;;;19.61;100.00;100233.47;5085721;28;20032;-44
2022/07/25 10:58:52;;;;;;;0.80;0.00;;;;;;;19.66;100.00;100230.81;5082795;28;20032;-54
2022/07/25 11:01:26;;;;;;;1.35;0.10;;;;;;;19.88;100.00;100228.06;5083684;28;20230;-50
2022/07/25 11:03:54;;;;;;;0.43;0.00;;;;;;;20.13;100.00;100226.59;5074278;28;20028;-53
2022/07/25 11:06:39;;;;;;;0.90;0.20;;;;;;;20.24;100.00;100222.91;5082957;28;20189;-52
2022/07/25 11:09:23;;;;;;;0.20;0.00;;;;;;;20.28;100.00;100215.91;5079897;28;20028;-47
2022/07/25 11:11:51;;;;;;;0.70;0.00;;;;;;;20.16;100.00;100207.22;5081079;28;20109;-46
2022/07/25 11:14:40;;;;;;;0.10;0.00;;;;;;;20.23;100.00;100211.31;5076184;28;20395;-48
2022/07/25 11:17:17;;;;;;;1.65;0.30;;;;;;;20.53;100.00;100215.22;5082910;28;20447;-56